createdAt,value
2017-09-04T00:01:11.792Z,4.37
2017-09-04T00:03:39.292Z,4.50
2017-09-04T00:06:06.825Z,4.13
2017-09-04T00:08:38.807Z,4.50
2017-09-04T00:11:06.307Z,3.93
2017-09-04T00:13:33.836Z,6.03
2017-09-04T00:16:01.348Z,6.45
2017-09-04T00:18:28.890Z,4.40
2017-09-04T00:20:56.402Z,4.87
2017-09-04T00:23:23.965Z,5.73
2017-09-04T00:25:51.483Z,5.43
2017-09-04T00:28:19.799Z,5.65
2017-09-04T00:30:47.327Z,8.60
2017-09-04T00:33:14.837Z,3.92
2017-09-04T00:35:42.372Z,7.77
2017-09-04T00:38:09.879Z,4.70
2017-09-04T00:40:41.292Z,6.37
2017-09-04T00:43:10.888Z,4.20
2017-09-04T00:45:39.355Z,6.33
2017-09-04T00:48:06.863Z,4.17
2017-09-04T00:50:34.360Z,6.27
2017-09-04T00:53:01.866Z,4.63
2017-09-04T00:55:31.968Z,8.97
2017-09-04T00:58:03.522Z,7.57
2017-09-04T01:00:31.047Z,4.13
2017-09-04T01:02:58.648Z,4.16
2017-09-04T01:05:26.179Z,4.30
2017-09-04T01:07:53.723Z,2.57
2017-09-04T01:10:21.247Z,2.83
2017-09-04T01:12:48.753Z,3.33
2017-09-04T01:15:17.938Z,2.17
2017-09-04T01:17:45.451Z,3.30
2017-09-04T01:20:13.058Z,4.13
2017-09-04T01:22:40.586Z,4.10
2017-09-04T01:25:08.099Z,5.62
2017-09-04T01:27:39.244Z,4.20
2017-09-04T01:30:07.555Z,3.37
2017-09-04T01:32:35.087Z,4.93
2017-09-04T01:35:02.592Z,4.27
2017-09-04T01:37:30.121Z,6.22
2017-09-04T01:39:57.655Z,4.30
2017-09-04T01:42:25.184Z,4.87
2017-09-04T01:44:52.707Z,3.92
2017-09-04T01:47:21.044Z,4.00
2017-09-04T01:49:48.616Z,5.25
2017-09-04T01:52:16.919Z,3.87
2017-09-04T01:54:44.426Z,4.00
2017-09-04T01:57:17.056Z,4.83
2017-09-04T01:59:44.556Z,3.13
2017-09-04T02:02:12.063Z,4.15
2017-09-04T02:04:40.527Z,3.83
2017-09-04T02:07:09.847Z,4.73
2017-09-04T02:09:37.338Z,3.85
2017-09-04T02:12:08.564Z,4.40
2017-09-04T02:14:36.095Z,3.28
2017-09-04T02:17:03.631Z,3.60
2017-09-04T02:19:31.160Z,2.47
2017-09-04T02:21:58.699Z,4.87
2017-09-04T02:24:26.212Z,6.03
2017-09-04T02:26:58.223Z,3.50
2017-09-04T02:29:25.739Z,5.63
2017-09-04T02:31:53.276Z,5.80
2017-09-04T02:34:20.836Z,3.60
2017-09-04T02:36:48.387Z,6.93
2017-09-04T02:39:16.837Z,6.43
2017-09-04T02:41:44.352Z,4.47
2017-09-04T02:44:11.886Z,3.57
2017-09-04T02:46:39.378Z,3.70
2017-09-04T02:49:06.908Z,4.10
2017-09-04T02:51:34.423Z,4.13
2017-09-04T02:54:02.081Z,6.83
2017-09-04T02:56:29.578Z,5.40
2017-09-04T02:58:57.711Z,4.93
2017-09-04T03:01:26.889Z,5.28
2017-09-04T03:03:54.401Z,5.40
2017-09-04T03:06:22.176Z,4.95
2017-09-04T03:08:49.703Z,3.55
2017-09-04T03:11:17.492Z,3.40
2017-09-04T03:13:45.046Z,8.20
2017-09-04T03:16:13.496Z,5.60
2017-09-04T03:18:41.639Z,3.70
2017-09-04T03:21:09.624Z,3.50
2017-09-04T03:23:37.196Z,2.83
2017-09-04T03:26:04.747Z,5.00
2017-09-04T03:28:32.260Z,4.82
2017-09-04T03:31:00.521Z,3.30
2017-09-04T03:33:28.028Z,2.77
2017-09-04T03:35:55.571Z,2.70
2017-09-04T03:38:23.094Z,3.83
2017-09-04T03:40:50.643Z,3.35
2017-09-04T03:43:22.355Z,5.10
2017-09-04T03:45:49.923Z,6.12
2017-09-04T03:48:17.439Z,4.20
2017-09-04T03:50:44.988Z,3.20
2017-09-04T03:53:13.207Z,5.37
2017-09-04T03:55:40.760Z,4.70
2017-09-04T03:58:12.129Z,3.25
2017-09-04T04:00:39.691Z,3.77
2017-09-04T04:03:07.200Z,4.07
2017-09-04T04:05:34.746Z,4.97
2017-09-04T04:08:02.243Z,5.53
2017-09-04T04:10:29.779Z,3.73
2017-09-04T04:13:01.945Z,7.30
2017-09-04T04:15:29.522Z,3.60
2017-09-04T04:17:57.037Z,3.37
2017-09-04T04:20:24.610Z,3.12
2017-09-04T04:22:52.116Z,5.15
2017-09-04T04:25:19.621Z,4.47
2017-09-04T04:27:48.558Z,3.90
2017-09-04T04:30:16.059Z,3.53
2017-09-04T04:32:43.635Z,2.87
2017-09-04T04:35:11.194Z,3.33
2017-09-04T04:37:38.718Z,3.30
2017-09-04T04:40:07.923Z,5.10
2017-09-04T04:42:36.344Z,2.17
2017-09-04T04:45:03.859Z,1.77
2017-09-04T04:47:31.505Z,2.22
2017-09-04T04:49:59.014Z,3.55
2017-09-04T04:52:26.537Z,3.17
2017-09-04T04:54:54.040Z,2.67
2017-09-04T04:57:23.610Z,2.80
2017-09-04T04:59:51.155Z,3.20
2017-09-04T05:02:18.658Z,4.65
2017-09-04T05:04:46.207Z,3.90
2017-09-04T05:07:13.729Z,3.40
2017-09-04T05:09:41.295Z,4.60
2017-09-04T05:12:09.717Z,5.25
2017-09-04T05:14:37.264Z,5.53
2017-09-04T05:17:04.794Z,8.37
2017-09-04T05:19:32.360Z,7.87
2017-09-04T05:21:59.872Z,9.93
2017-09-04T05:24:28.182Z,9.53
2017-09-04T05:26:55.759Z,13.47
2017-09-04T05:29:31.942Z,9.05
2017-09-04T05:32:03.307Z,11.77
2017-09-04T05:34:30.818Z,11.57
2017-09-04T05:36:59.039Z,15.13
2017-09-04T05:39:26.768Z,15.77
2017-09-04T05:41:54.841Z,15.02
2017-09-04T05:44:22.400Z,10.50
2017-09-04T05:46:51.178Z,15.50
2017-09-04T05:49:20.432Z,16.45
2017-09-04T05:51:47.991Z,14.02
2017-09-04T05:54:15.497Z,24.87
2017-09-04T05:56:43.955Z,25.10
2017-09-04T05:59:11.463Z,19.92
2017-09-04T06:01:40.702Z,25.90
2017-09-04T06:04:08.958Z,20.40
2017-09-04T06:06:36.503Z,18.40
2017-09-04T06:09:04.056Z,18.60
2017-09-04T06:11:31.572Z,18.40
2017-09-04T06:14:00.045Z,20.93
2017-09-04T06:16:27.940Z,24.30
2017-09-04T06:18:55.513Z,23.70
2017-09-04T06:21:23.841Z,21.53
2017-09-04T06:23:51.766Z,20.90
2017-09-04T06:26:19.288Z,28.67
2017-09-04T06:28:47.308Z,28.55
2017-09-04T06:31:16.281Z,31.63
2017-09-04T06:33:45.852Z,30.47
2017-09-04T06:36:14.136Z,32.60
2017-09-04T06:38:42.259Z,37.78
2017-09-04T06:41:09.771Z,32.33
2017-09-04T06:43:38.464Z,39.10
2017-09-04T06:46:06.713Z,31.97
2017-09-04T06:48:34.281Z,28.23
2017-09-04T06:51:01.851Z,26.83
2017-09-04T06:53:29.363Z,27.30
2017-09-04T06:55:56.876Z,22.00
2017-09-04T06:58:24.396Z,25.20
2017-09-04T07:00:53.970Z,27.93
2017-09-04T07:03:21.535Z,23.73
2017-09-04T07:05:49.141Z,29.30
2017-09-04T07:08:16.656Z,24.70
2017-09-04T07:10:45.100Z,21.65
2017-09-04T07:13:12.645Z,24.33
2017-09-04T07:15:40.154Z,20.73
2017-09-04T07:18:10.639Z,22.95
2017-09-04T07:20:38.223Z,23.77
2017-09-04T07:23:05.784Z,16.10
2017-09-04T07:25:33.307Z,16.87
2017-09-04T07:28:00.860Z,17.20
2017-09-04T07:30:29.147Z,15.50
2017-09-04T07:34:54.137Z,13.10
2017-09-04T07:37:22.647Z,13.83
2017-09-04T07:39:50.169Z,14.18
2017-09-04T07:42:18.209Z,11.30
2017-09-04T07:44:45.796Z,15.77
2017-09-04T07:47:14.161Z,12.23
2017-09-04T07:49:41.775Z,10.47
2017-09-04T07:52:09.336Z,9.83
2017-09-04T07:54:37.448Z,13.13
2017-09-04T07:57:04.967Z,6.57
2017-09-04T07:59:34.172Z,7.57
2017-09-04T08:02:02.001Z,5.75
2017-09-04T08:04:29.561Z,5.00
2017-09-04T08:06:57.893Z,12.43
2017-09-04T08:09:25.451Z,9.07
2017-09-04T08:11:52.954Z,8.32
2017-09-04T08:14:21.422Z,6.78
2017-09-04T08:16:56.344Z,7.67
2017-09-04T08:19:23.900Z,10.70
2017-09-04T08:21:52.577Z,5.07
2017-09-04T08:24:20.084Z,6.10
2017-09-04T08:26:47.629Z,5.53
2017-09-04T08:29:15.185Z,7.13
2017-09-04T08:31:42.697Z,8.90
2017-09-04T08:34:11.178Z,6.47
2017-09-04T08:36:38.716Z,5.47
2017-09-04T08:39:06.233Z,4.80
2017-09-04T08:41:34.130Z,5.70
2017-09-04T08:44:01.680Z,5.20
2017-09-04T08:46:29.220Z,8.77
2017-09-04T08:48:56.735Z,4.65
2017-09-04T08:51:25.636Z,6.67
2017-09-04T08:53:53.175Z,9.40
2017-09-04T08:56:20.763Z,6.50
2017-09-04T08:58:49.959Z,6.47
2017-09-04T09:01:17.569Z,5.80
2017-09-04T09:03:45.086Z,6.93
2017-09-04T09:06:12.592Z,5.17
2017-09-04T09:08:40.128Z,11.53
2017-09-04T09:11:09.347Z,6.07
2017-09-04T09:13:37.338Z,6.55
2017-09-04T09:16:04.848Z,6.70
2017-09-04T09:18:33.104Z,5.07
2017-09-04T09:21:00.644Z,9.20
2017-09-04T09:23:28.199Z,5.00
2017-09-04T09:25:55.704Z,4.40
2017-09-04T09:28:23.268Z,7.50
2017-09-04T09:30:50.870Z,5.43
2017-09-04T09:33:18.385Z,5.23
2017-09-04T09:35:45.887Z,3.77
2017-09-04T09:38:14.197Z,9.80
2017-09-04T09:40:41.747Z,3.90
2017-09-04T09:43:09.259Z,4.00
2017-09-04T09:45:36.793Z,4.00
2017-09-04T09:48:04.330Z,3.20
2017-09-04T09:50:31.888Z,3.93
2017-09-04T09:53:00.478Z,4.37
2017-09-04T09:55:28.059Z,4.10
2017-09-04T09:57:55.569Z,4.77
2017-09-04T10:00:23.076Z,3.93
2017-09-04T10:02:50.588Z,8.13
2017-09-04T10:05:19.045Z,4.50
2017-09-04T10:07:46.603Z,4.70
2017-09-04T10:10:14.354Z,3.20
2017-09-04T10:12:41.875Z,3.57
2017-09-04T10:15:09.560Z,4.60
2017-09-04T10:17:37.212Z,3.00
2017-09-04T10:20:04.771Z,2.30
2017-09-04T10:22:33.055Z,3.03
2017-09-04T10:25:00.579Z,2.72
2017-09-04T10:27:28.163Z,3.10
2017-09-04T10:29:55.686Z,3.33
2017-09-04T10:32:23.192Z,2.77
2017-09-04T10:34:50.927Z,2.47
2017-09-04T10:37:18.442Z,2.77
2017-09-04T10:39:47.659Z,2.00
2017-09-04T10:42:15.307Z,2.70
2017-09-04T10:44:42.816Z,1.80
2017-09-04T10:47:10.340Z,2.97
2017-09-04T10:49:41.937Z,2.53
2017-09-04T10:52:09.520Z,1.60
2017-09-04T10:54:37.058Z,1.63
2017-09-04T10:57:04.562Z,2.33
2017-09-04T10:59:32.149Z,2.17
2017-09-04T11:01:59.704Z,3.97
2017-09-04T11:04:27.366Z,1.70
2017-09-04T11:06:55.873Z,2.95
2017-09-04T11:09:23.775Z,1.40
2017-09-04T11:11:51.293Z,1.87
2017-09-04T11:14:18.836Z,2.60
2017-09-04T11:16:46.338Z,1.83
2017-09-04T11:19:14.767Z,2.03
2017-09-04T11:21:42.303Z,1.80
2017-09-04T11:24:09.813Z,3.00
2017-09-04T11:26:37.337Z,3.30
2017-09-04T11:29:05.683Z,3.35
2017-09-04T11:31:33.837Z,2.53
2017-09-04T11:34:01.341Z,1.95
2017-09-04T11:36:28.843Z,2.40
2017-09-04T11:38:56.359Z,4.60
2017-09-04T11:41:24.685Z,5.47
2017-09-04T11:43:52.811Z,3.13
2017-09-04T11:46:20.311Z,2.47
2017-09-04T11:48:47.866Z,1.77
2017-09-04T11:51:19.843Z,4.43
2017-09-04T11:53:47.817Z,2.20
2017-09-04T11:56:15.353Z,3.00
2017-09-04T11:58:42.888Z,2.20
2017-09-04T12:01:10.433Z,2.47
2017-09-04T12:03:38.027Z,2.43
2017-09-04T12:06:05.587Z,4.07
2017-09-04T12:08:33.117Z,3.23
2017-09-04T12:11:02.320Z,7.47
2017-09-04T12:13:32.283Z,2.57
2017-09-04T12:15:59.803Z,3.90
2017-09-04T12:18:27.369Z,6.00
2017-09-04T12:20:57.791Z,3.57
2017-09-04T12:23:30.904Z,2.60
2017-09-04T12:25:58.417Z,4.37
2017-09-04T12:28:25.989Z,4.07
2017-09-04T12:30:53.584Z,7.27
2017-09-04T12:33:21.476Z,3.15
2017-09-04T12:35:49.174Z,3.50
2017-09-04T12:38:16.698Z,4.33
2017-09-04T12:40:44.221Z,9.10
2017-09-04T12:43:12.496Z,4.90
2017-09-04T12:45:41.691Z,6.20
2017-09-04T12:48:09.228Z,5.13
2017-09-04T12:50:36.771Z,7.30
2017-09-04T12:53:05.244Z,6.87
2017-09-04T12:55:32.784Z,9.10
2017-09-04T12:58:01.215Z,5.07
2017-09-04T13:00:28.875Z,3.60
2017-09-04T13:02:56.386Z,5.63
2017-09-04T13:05:24.811Z,3.67
2017-09-04T13:07:52.366Z,3.30
2017-09-04T13:13:29.177Z,4.57
2017-09-04T13:16:02.216Z,5.70
2017-09-04T13:18:35.532Z,8.40
2017-09-04T13:21:08.620Z,5.37
2017-09-04T13:26:49.679Z,6.60
2017-09-04T13:29:22.908Z,4.00
2017-09-04T13:35:02.382Z,5.40
2017-09-04T13:37:30.811Z,5.30
2017-09-04T13:40:04.211Z,3.83
2017-09-04T13:42:37.396Z,9.30
2017-09-04T13:48:17.851Z,6.57
2017-09-04T13:53:56.456Z,6.07
2017-09-04T13:56:43.555Z,6.33
2017-09-04T14:02:21.612Z,5.93
2017-09-04T14:04:55.271Z,4.60
2017-09-04T14:07:28.378Z,5.67
2017-09-04T14:10:01.480Z,3.70
2017-09-04T14:12:34.478Z,4.53
2017-09-04T14:18:12.255Z,4.07
2017-09-04T14:20:39.796Z,7.87
2017-09-04T14:23:07.656Z,5.62
2017-09-04T14:25:35.226Z,3.35
2017-09-04T14:28:02.726Z,3.27
2017-09-04T14:30:30.248Z,4.97
2017-09-04T14:32:57.751Z,5.20
2017-09-04T14:35:25.688Z,3.58
2017-09-04T14:37:53.525Z,3.97
2017-09-04T14:40:27.289Z,3.50
2017-09-04T14:43:02.243Z,3.57
2017-09-04T14:45:35.473Z,6.15
2017-09-04T14:48:09.617Z,4.52
2017-09-04T14:50:37.148Z,5.97
2017-09-04T14:53:04.693Z,3.67
2017-09-04T14:55:32.197Z,3.95
2017-09-04T14:57:59.735Z,2.97
2017-09-04T15:00:27.263Z,5.33
2017-09-04T15:02:54.815Z,6.37
2017-09-04T15:05:22.380Z,11.30
2017-09-04T15:07:49.890Z,24.92
2017-09-04T15:10:18.963Z,8.27
2017-09-04T15:12:46.528Z,2.57
2017-09-04T15:15:14.039Z,3.95
2017-09-04T15:17:43.271Z,3.60
2017-09-04T15:20:10.772Z,3.33
2017-09-04T15:22:38.318Z,3.42
2017-09-04T15:25:05.861Z,3.97
2017-09-04T15:27:33.407Z,2.83
2017-09-04T15:30:00.912Z,3.37
2017-09-04T15:32:29.259Z,2.67
2017-09-04T15:34:57.389Z,2.40
2017-09-04T15:37:24.908Z,2.20
2017-09-04T15:39:52.444Z,3.60
2017-09-04T15:42:20.875Z,2.50
2017-09-04T15:44:48.419Z,5.60
2017-09-04T15:47:15.943Z,2.55
2017-09-04T15:49:43.451Z,5.57
2017-09-04T15:52:11.052Z,4.53
2017-09-04T15:54:38.558Z,5.93
2017-09-04T15:57:06.180Z,2.90
2017-09-04T15:59:33.683Z,4.63
2017-09-04T16:02:02.194Z,4.40
2017-09-04T16:04:29.804Z,3.83
2017-09-04T16:06:59.224Z,3.33
2017-09-04T16:09:31.529Z,3.70
2017-09-04T16:15:10.259Z,2.93
2017-09-04T16:17:39.243Z,2.50
2017-09-04T16:20:07.313Z,3.42
2017-09-04T16:22:34.816Z,5.83
2017-09-04T16:25:04.819Z,5.77
2017-09-04T16:30:37.347Z,2.40
2017-09-04T16:33:05.344Z,4.20
2017-09-04T16:38:35.122Z,5.73
2017-09-04T16:41:02.725Z,3.35
2017-09-04T16:43:30.300Z,3.10
2017-09-04T16:46:14.604Z,3.43
2017-09-04T16:48:42.112Z,3.40
2017-09-04T16:51:16.415Z,5.70
2017-09-04T16:53:45.511Z,3.30
2017-09-04T16:56:17.530Z,4.70
2017-09-04T16:58:45.956Z,4.73
2017-09-04T17:01:13.469Z,26.12
2017-09-04T17:03:41.067Z,44.13
2017-09-04T17:06:08.584Z,7.20
2017-09-04T17:08:38.060Z,10.33
2017-09-04T17:11:10.171Z,2.97
2017-09-04T17:13:37.728Z,2.83
2017-09-04T17:16:06.609Z,4.28
2017-09-04T17:18:35.871Z,3.30
2017-09-04T17:21:07.259Z,4.68
2017-09-04T17:23:35.579Z,4.87
2017-09-04T17:26:07.618Z,4.10
2017-09-04T17:28:35.116Z,5.00
2017-09-04T17:31:03.148Z,3.47
2017-09-04T17:33:32.259Z,3.42
2017-09-04T17:35:59.780Z,3.40
2017-09-04T17:38:28.155Z,4.37
2017-09-04T17:40:56.380Z,3.95
2017-09-04T17:43:23.910Z,5.90
2017-09-04T17:45:51.462Z,2.87
2017-09-04T17:48:19.047Z,5.50
2017-09-04T17:50:46.598Z,3.83
2017-09-04T17:53:15.047Z,4.20
2017-09-04T17:55:42.596Z,6.62
2017-09-04T17:58:10.106Z,5.35
2017-09-04T18:00:38.178Z,4.17
2017-09-04T18:03:05.699Z,7.90
2017-09-04T18:05:33.244Z,4.83
2017-09-04T18:08:00.781Z,4.30
2017-09-04T18:10:28.785Z,3.75
2017-09-04T18:12:57.100Z,4.73
2017-09-04T18:15:24.645Z,4.90
2017-09-04T18:17:52.148Z,4.80
2017-09-04T18:20:19.675Z,4.73
2017-09-04T18:22:47.831Z,5.25
2017-09-04T18:25:16.155Z,4.20
2017-09-04T18:27:43.715Z,6.97
2017-09-04T18:30:11.268Z,8.07
2017-09-04T18:32:38.817Z,4.18
2017-09-04T18:35:07.250Z,4.70
2017-09-04T18:37:34.800Z,4.60
2017-09-04T18:40:02.332Z,3.87
2017-09-04T18:42:33.304Z,5.62
2017-09-04T18:45:00.827Z,5.28
2017-09-04T18:47:28.756Z,5.97
2017-09-04T18:49:56.459Z,6.35
2017-09-04T18:52:24.040Z,4.37
2017-09-04T18:54:51.547Z,7.20
2017-09-04T18:57:19.076Z,5.40
2017-09-04T18:59:46.599Z,13.10
2017-09-04T19:02:14.123Z,8.00
2017-09-04T19:04:42.505Z,4.67
2017-09-04T19:07:10.324Z,6.07
2017-09-04T19:09:37.877Z,3.92
2017-09-04T19:12:05.489Z,4.37
2017-09-04T19:14:33.038Z,4.60
2017-09-04T19:17:01.371Z,6.10
2017-09-04T19:19:28.898Z,5.13
2017-09-04T19:21:56.584Z,5.40
2017-09-04T19:24:24.204Z,12.70
2017-09-04T19:26:51.799Z,9.27
2017-09-04T19:29:19.332Z,6.00
2017-09-04T19:31:47.024Z,5.20
2017-09-04T19:34:14.595Z,4.50
2017-09-04T19:36:42.576Z,6.40
2017-09-04T19:39:10.099Z,4.80
2017-09-04T19:41:37.661Z,10.93
2017-09-04T19:44:09.595Z,7.12
2017-09-04T19:46:38.496Z,5.78
2017-09-04T19:49:06.145Z,7.40
2017-09-04T19:51:33.709Z,5.20
2017-09-04T19:54:04.044Z,5.62
2017-09-04T19:56:33.692Z,8.80
2017-09-04T19:59:05.100Z,11.53
2017-09-04T20:01:34.004Z,8.27
2017-09-04T20:04:01.585Z,6.80
2017-09-04T20:06:29.158Z,8.47
2017-09-04T20:08:57.635Z,9.50
2017-09-04T20:11:25.207Z,8.87
2017-09-04T20:13:55.767Z,7.70
2017-09-04T20:16:23.533Z,7.07
2017-09-04T20:18:51.092Z,8.10
2017-09-04T20:21:18.664Z,7.67
2017-09-04T20:23:46.952Z,8.25
2017-09-04T20:26:15.373Z,9.10
2017-09-04T20:28:42.933Z,6.67
2017-09-04T20:31:10.541Z,7.50
2017-09-04T20:33:38.179Z,9.32
2017-09-04T20:36:07.339Z,5.67
2017-09-04T20:38:35.554Z,8.47
2017-09-04T20:41:03.128Z,6.62
2017-09-04T20:43:30.800Z,8.70
2017-09-04T20:45:58.348Z,9.40
2017-09-04T20:48:25.953Z,10.70
2017-09-04T20:50:53.463Z,10.35
2017-09-04T20:53:21.159Z,8.10
2017-09-04T20:55:48.704Z,10.13
2017-09-04T20:58:16.207Z,6.70
2017-09-04T21:00:44.637Z,7.20
2017-09-04T21:03:12.220Z,10.20
2017-09-04T21:05:39.828Z,13.00
2017-09-04T21:08:07.735Z,8.53
2017-09-04T21:10:36.188Z,7.20
2017-09-04T21:13:03.712Z,7.17
2017-09-04T21:15:31.242Z,7.07
2017-09-04T21:17:58.787Z,7.80
2017-09-04T21:20:26.316Z,9.20
2017-09-04T21:22:53.977Z,8.27
2017-09-04T21:25:21.508Z,14.37
2017-09-04T21:27:49.056Z,8.80
2017-09-04T21:30:16.602Z,10.45
2017-09-04T21:32:44.168Z,7.10
2017-09-04T21:35:12.288Z,7.85
2017-09-04T21:37:40.204Z,10.20
2017-09-04T21:40:08.056Z,7.67
2017-09-04T21:42:35.625Z,12.35
2017-09-04T21:45:03.151Z,7.97
2017-09-04T21:47:31.053Z,11.82
2017-09-04T21:49:58.607Z,6.53
2017-09-04T21:52:26.114Z,8.87
2017-09-04T21:54:53.620Z,6.95
2017-09-04T21:57:21.119Z,9.63
2017-09-04T21:59:48.660Z,8.80
2017-09-04T22:02:17.891Z,8.93
2017-09-04T22:04:45.415Z,10.63
2017-09-04T22:07:12.919Z,7.80
2017-09-04T22:09:40.475Z,6.70
2017-09-04T22:12:09.984Z,6.97
2017-09-04T22:14:37.485Z,7.67
2017-09-04T22:17:04.987Z,7.17
2017-09-04T22:19:32.484Z,8.30
2017-09-04T22:22:00.097Z,10.17
2017-09-04T22:24:28.252Z,7.60
2017-09-04T22:26:55.861Z,10.53
2017-09-04T22:29:23.404Z,7.77
2017-09-04T22:31:50.907Z,9.20
2017-09-04T22:34:18.807Z,7.70
2017-09-04T22:36:46.319Z,7.30
2017-09-04T22:39:13.874Z,8.50
2017-09-04T22:41:42.169Z,7.13
2017-09-04T22:44:09.687Z,11.57
2017-09-04T22:46:42.294Z,7.63
2017-09-04T22:49:09.857Z,7.20
2017-09-04T22:51:37.392Z,6.50
2017-09-04T22:54:04.949Z,6.43
2017-09-04T22:56:32.460Z,7.50
2017-09-04T22:59:00.467Z,6.15
2017-09-04T23:01:27.968Z,7.70
2017-09-04T23:03:56.047Z,8.07
2017-09-04T23:06:23.699Z,5.33
2017-09-04T23:08:51.206Z,6.30
2017-09-04T23:11:18.756Z,7.40
2017-09-04T23:13:46.287Z,6.43
2017-09-04T23:16:14.675Z,11.60
2017-09-04T23:18:42.283Z,7.20
2017-09-04T23:21:10.204Z,8.30
2017-09-04T23:23:37.723Z,10.38
2017-09-04T23:26:05.250Z,6.70
2017-09-04T23:28:32.760Z,7.20
2017-09-04T23:31:01.060Z,7.82
2017-09-04T23:33:28.925Z,9.18
2017-09-04T23:35:56.495Z,10.03
2017-09-04T23:38:24.012Z,6.87
2017-09-04T23:40:51.530Z,5.20
2017-09-04T23:43:19.055Z,6.90
2017-09-04T23:45:46.592Z,8.30
2017-09-04T23:48:17.863Z,7.60
2017-09-04T23:50:45.367Z,9.13
2017-09-04T23:53:12.923Z,7.20
2017-09-04T23:55:40.469Z,11.47
2017-09-04T23:58:07.975Z,9.27
